createdAt,value
2022-11-13T00:02:33.700Z,26.40
2022-11-13T00:05:07.034Z,26.17
2022-11-13T00:07:39.798Z,25.47
2022-11-13T00:10:12.466Z,25.97
2022-11-13T00:12:46.778Z,24.40
2022-11-13T00:15:19.456Z,26.93
2022-11-13T00:17:52.303Z,32.87
2022-11-13T00:20:24.981Z,26.00
2022-11-13T00:22:57.966Z,22.07
2022-11-13T00:25:30.728Z,26.73
2022-11-13T00:28:07.827Z,23.70
2022-11-13T00:30:42.551Z,22.53
2022-11-13T00:33:26.453Z,21.90
2022-11-13T00:36:10.243Z,21.73
2022-11-13T00:38:43.001Z,23.73
2022-11-13T00:41:17.190Z,25.13
2022-11-13T00:43:51.539Z,22.63
2022-11-13T00:46:24.193Z,19.07
2022-11-13T00:48:56.989Z,19.70
2022-11-13T00:51:29.796Z,20.93
2022-11-13T00:54:02.648Z,18.50
2022-11-13T00:56:35.356Z,20.30
2022-11-13T00:59:09.667Z,18.20
2022-11-13T01:01:42.576Z,18.47
2022-11-13T01:04:18.219Z,19.00
2022-11-13T01:06:51.084Z,18.00
2022-11-13T01:09:23.843Z,18.50
2022-11-13T01:11:56.585Z,17.83
2022-11-13T01:14:34.426Z,20.57
2022-11-13T01:17:07.128Z,18.53
2022-11-13T01:19:39.808Z,19.40
2022-11-13T01:22:12.505Z,19.70
2022-11-13T01:24:45.405Z,18.53
2022-11-13T01:27:20.948Z,19.90
2022-11-13T01:29:55.075Z,17.03
2022-11-13T01:32:27.861Z,19.00
2022-11-13T01:35:00.957Z,17.03
2022-11-13T01:37:33.708Z,18.53
2022-11-13T01:40:08.872Z,19.13
2022-11-13T01:42:41.648Z,17.87
2022-11-13T01:45:34.472Z,18.43
2022-11-13T01:48:12.334Z,22.47
2022-11-13T01:50:47.912Z,19.60
2022-11-13T01:53:20.812Z,16.10
2022-11-13T01:55:54.086Z,21.33
2022-11-13T01:58:27.191Z,16.43
2022-11-13T02:01:01.555Z,23.10
2022-11-13T02:03:36.673Z,17.50
2022-11-13T02:06:09.630Z,17.87
2022-11-13T02:08:44.990Z,16.37
2022-11-13T02:11:18.050Z,18.73
2022-11-13T02:13:51.046Z,19.40
2022-11-13T02:16:24.305Z,18.13
2022-11-13T02:18:58.560Z,18.40
2022-11-13T02:21:35.031Z,18.77
2022-11-13T02:24:20.137Z,19.70
2022-11-13T02:26:55.044Z,24.13
2022-11-13T02:29:27.744Z,21.03
2022-11-13T02:32:00.527Z,20.47
2022-11-13T02:34:33.704Z,21.07
2022-11-13T02:37:06.550Z,29.77
2022-11-13T02:39:40.878Z,21.07
2022-11-13T02:42:14.102Z,23.37
2022-11-13T02:44:46.853Z,23.07
2022-11-13T02:47:22.716Z,23.67
2022-11-13T02:49:55.523Z,24.50
2022-11-13T02:52:28.530Z,21.60
2022-11-13T02:55:02.693Z,23.70
2022-11-13T02:57:38.061Z,26.20
2022-11-13T03:00:14.010Z,21.40
2022-11-13T03:02:47.311Z,22.37
2022-11-13T03:05:20.244Z,21.00
2022-11-13T03:07:53.387Z,25.47
2022-11-13T03:10:27.494Z,20.90
2022-11-13T03:13:02.827Z,26.73
2022-11-13T03:15:35.702Z,25.67
2022-11-13T03:18:08.910Z,26.50
2022-11-13T03:20:42.432Z,23.93
2022-11-13T03:23:15.100Z,25.40
2022-11-13T03:25:49.310Z,24.63
2022-11-13T03:28:22.101Z,24.13
2022-11-13T03:30:57.438Z,23.93
2022-11-13T03:33:30.569Z,22.63
2022-11-13T03:36:03.394Z,21.20
2022-11-13T03:38:38.706Z,21.30
2022-11-13T03:41:14.843Z,23.03
2022-11-13T03:43:47.591Z,27.20
2022-11-13T03:46:20.115Z,22.23
2022-11-13T03:48:52.880Z,19.57
2022-11-13T03:51:25.651Z,20.33
2022-11-13T03:53:58.334Z,17.97
2022-11-13T03:56:32.394Z,17.77
2022-11-13T03:59:05.255Z,18.00
2022-11-13T04:01:38.028Z,17.40
2022-11-13T04:04:10.752Z,17.40
2022-11-13T04:06:43.552Z,15.47
2022-11-13T04:09:16.484Z,18.97
2022-11-13T04:11:50.596Z,15.97
2022-11-13T04:14:23.519Z,20.43
2022-11-13T04:16:56.315Z,18.97
2022-11-13T04:19:29.206Z,16.50
2022-11-13T04:22:01.903Z,17.33
2022-11-13T04:24:34.940Z,16.40
2022-11-13T04:27:09.109Z,15.63
2022-11-13T04:29:41.849Z,15.43
2022-11-13T04:32:14.581Z,14.10
2022-11-13T04:34:47.479Z,14.40
2022-11-13T04:37:20.238Z,14.33
2022-11-13T04:39:55.075Z,13.03
2022-11-13T04:42:46.436Z,15.80
2022-11-13T04:45:19.810Z,12.60
2022-11-13T04:47:52.527Z,13.40
2022-11-13T04:50:25.570Z,14.47
2022-11-13T04:52:58.459Z,17.23
2022-11-13T04:55:31.175Z,14.87
2022-11-13T04:58:06.986Z,15.87
2022-11-13T05:00:39.699Z,14.93
2022-11-13T05:03:12.528Z,13.33
2022-11-13T05:05:45.336Z,12.93
2022-11-13T05:08:18.191Z,13.37
2022-11-13T05:10:50.995Z,16.00
2022-11-13T05:13:25.142Z,13.73
2022-11-13T05:16:03.862Z,14.53
2022-11-13T05:18:38.621Z,13.50
2022-11-13T05:21:14.351Z,14.03
2022-11-13T05:23:46.992Z,14.90
2022-11-13T05:26:19.747Z,18.53
2022-11-13T05:28:56.789Z,16.90
2022-11-13T05:31:29.439Z,16.47
2022-11-13T05:34:05.946Z,16.27
2022-11-13T05:36:39.029Z,18.17
2022-11-13T05:39:17.148Z,18.20
2022-11-13T05:41:49.915Z,18.40
2022-11-13T05:44:23.890Z,19.83
2022-11-13T05:46:56.605Z,18.97
2022-11-13T05:49:29.308Z,18.47
2022-11-13T05:52:02.137Z,19.40
2022-11-13T05:54:34.748Z,20.60
2022-11-13T05:57:07.543Z,20.30
2022-11-13T05:59:43.935Z,20.03
2022-11-13T06:02:16.936Z,20.37
2022-11-13T06:04:50.671Z,22.87
2022-11-13T06:07:24.454Z,23.63
2022-11-13T06:09:59.809Z,21.60
2022-11-13T06:12:32.717Z,21.47
2022-11-13T06:15:09.647Z,22.90
2022-11-13T06:17:46.246Z,24.33
2022-11-13T06:20:19.056Z,21.43
2022-11-13T06:22:51.906Z,21.73
2022-11-13T06:25:24.548Z,18.93
2022-11-13T06:27:59.932Z,21.83
2022-11-13T06:30:34.080Z,20.23
2022-11-13T06:33:06.931Z,22.07
2022-11-13T06:35:39.544Z,19.47
2022-11-13T06:38:12.361Z,19.17
2022-11-13T06:40:45.049Z,19.10
2022-11-13T06:43:20.523Z,18.70
2022-11-13T06:45:54.628Z,18.17
2022-11-13T06:48:27.784Z,17.00
2022-11-13T06:51:02.065Z,17.10
2022-11-13T06:53:35.477Z,19.97
2022-11-13T06:56:11.599Z,18.63
2022-11-13T06:58:44.830Z,19.73
2022-11-13T07:01:20.055Z,22.97
2022-11-13T07:03:53.070Z,22.27
2022-11-13T07:06:26.315Z,22.50
2022-11-13T07:08:58.909Z,22.53
2022-11-13T07:11:31.669Z,24.83
2022-11-13T07:14:04.533Z,20.13
2022-11-13T07:17:04.199Z,23.27
2022-11-13T07:19:37.688Z,22.83
2022-11-13T07:22:10.236Z,23.83
2022-11-13T07:24:43.769Z,25.47
2022-11-13T07:27:16.491Z,27.37
2022-11-13T07:29:49.308Z,24.33
2022-11-13T07:32:23.422Z,25.00
2022-11-13T07:34:56.248Z,25.93
2022-11-13T07:37:28.904Z,26.00
2022-11-13T07:40:01.629Z,24.70
2022-11-13T07:42:34.410Z,26.57
2022-11-13T07:45:07.689Z,24.47
2022-11-13T07:47:41.807Z,25.53
2022-11-13T07:50:14.841Z,25.80
2022-11-13T07:52:47.543Z,22.90
2022-11-13T07:55:20.356Z,26.30
2022-11-13T07:57:53.138Z,21.90
2022-11-13T08:00:26.160Z,24.93
2022-11-13T08:03:01.570Z,22.87
2022-11-13T08:05:34.391Z,22.20
2022-11-13T08:08:07.343Z,22.63
2022-11-13T08:10:40.132Z,22.07
2022-11-13T08:13:12.827Z,20.60
2022-11-13T08:15:45.576Z,23.83
2022-11-13T08:18:19.705Z,20.57
2022-11-13T08:20:52.462Z,25.67
2022-11-13T08:23:25.126Z,27.40
2022-11-13T08:25:57.951Z,25.60
2022-11-13T08:28:30.792Z,28.80
2022-11-13T08:31:03.997Z,26.03
2022-11-13T08:33:38.228Z,25.20
2022-11-13T08:36:11.554Z,24.53
2022-11-13T08:38:48.445Z,27.67
2022-11-13T08:41:21.225Z,27.50
2022-11-13T08:43:53.966Z,27.07
2022-11-13T08:46:26.861Z,27.20
2022-11-13T08:49:00.943Z,26.93
2022-11-13T08:51:33.669Z,25.57
2022-11-13T08:54:06.552Z,25.77
2022-11-13T08:56:39.327Z,24.57
2022-11-13T08:59:13.802Z,27.17
2022-11-13T09:01:46.937Z,25.57
2022-11-13T09:04:21.108Z,26.23
2022-11-13T09:06:54.383Z,24.93
2022-11-13T09:09:27.159Z,24.43
2022-11-13T09:11:59.946Z,25.40
2022-11-13T09:14:35.033Z,27.17
2022-11-13T09:17:07.898Z,27.77
2022-11-13T09:19:45.172Z,28.90
2022-11-13T09:22:20.179Z,26.83
2022-11-13T09:24:52.893Z,26.97
2022-11-13T09:27:25.639Z,24.77
2022-11-13T09:29:58.276Z,25.30
2022-11-13T09:32:30.971Z,23.60
2022-11-13T09:35:05.733Z,25.60
2022-11-13T09:37:38.411Z,24.43
2022-11-13T09:40:16.896Z,24.33
2022-11-13T09:42:49.884Z,26.33
2022-11-13T09:45:25.561Z,26.67
2022-11-13T09:48:02.385Z,23.20
2022-11-13T09:50:36.513Z,23.77
2022-11-13T09:53:10.440Z,25.27
2022-11-13T09:55:58.155Z,22.67
2022-11-13T09:58:37.423Z,22.17
2022-11-13T10:01:13.649Z,21.53
2022-11-13T10:04:01.557Z,21.87
2022-11-13T10:06:42.482Z,20.57
2022-11-13T10:09:20.516Z,18.87
2022-11-13T10:11:55.771Z,18.40
2022-11-13T10:14:30.939Z,22.83
2022-11-13T10:17:05.309Z,19.57
2022-11-13T10:19:41.436Z,19.67
2022-11-13T10:22:34.231Z,22.33
2022-11-13T10:25:12.949Z,21.90
2022-11-13T10:27:46.426Z,19.40
2022-11-13T10:30:20.485Z,21.50
2022-11-13T10:32:53.660Z,19.93
2022-11-13T10:35:34.161Z,17.80
2022-11-13T10:38:10.474Z,18.43
2022-11-13T10:40:43.476Z,20.67
2022-11-13T10:43:19.478Z,19.13
2022-11-13T10:45:56.802Z,18.27
2022-11-13T10:48:30.932Z,18.87
2022-11-13T10:51:09.084Z,21.37
2022-11-13T10:53:44.191Z,19.23
2022-11-13T10:56:25.822Z,22.43
2022-11-13T10:59:02.586Z,18.70
2022-11-13T11:01:38.191Z,17.97
2022-11-13T11:04:13.705Z,19.73
2022-11-13T11:07:18.522Z,17.90
2022-11-13T11:09:43.425Z,19.97
2022-11-13T11:12:18.333Z,19.13
2022-11-13T11:15:04.656Z,18.03
2022-11-13T11:17:42.723Z,17.57
2022-11-13T11:20:21.337Z,17.00
2022-11-13T11:22:56.155Z,16.10
2022-11-13T11:25:40.531Z,17.70
2022-11-13T11:28:15.800Z,17.20
2022-11-13T11:30:50.856Z,21.47
2022-11-13T11:33:30.311Z,18.53
2022-11-13T11:36:10.564Z,18.47
2022-11-13T11:38:48.110Z,17.03
2022-11-13T11:41:28.180Z,16.17
2022-11-13T11:44:05.009Z,16.33
2022-11-13T11:46:41.605Z,18.03
2022-11-13T11:49:19.640Z,16.60
2022-11-13T11:52:00.557Z,16.50
2022-11-13T11:54:39.180Z,15.30
2022-11-13T11:57:20.771Z,13.67
2022-11-13T12:00:01.657Z,15.60
2022-11-13T12:02:49.652Z,15.67
2022-11-13T12:05:24.078Z,15.17
2022-11-13T12:08:00.923Z,17.20
2022-11-13T12:10:38.410Z,15.43
2022-11-13T12:13:20.933Z,17.23
2022-11-13T12:15:58.835Z,17.77
2022-11-13T12:18:37.065Z,17.00
2022-11-13T12:21:22.190Z,15.07
2022-11-13T12:24:10.484Z,15.10
2022-11-13T12:26:47.573Z,16.90
2022-11-13T12:29:39.187Z,16.50
2022-11-13T12:32:18.328Z,15.70
2022-11-13T12:34:52.771Z,17.47
2022-11-13T12:37:29.353Z,18.13
2022-11-13T12:40:04.465Z,17.77
2022-11-13T12:42:41.811Z,17.67
2022-11-13T12:45:19.690Z,16.37
2022-11-13T12:47:52.531Z,17.80
2022-11-13T12:50:32.163Z,17.93
2022-11-13T12:53:09.036Z,19.50
2022-11-13T12:55:42.224Z,17.50
2022-11-13T12:58:23.077Z,22.43
2022-11-13T13:01:00.023Z,20.27
2022-11-13T13:03:53.753Z,19.10
2022-11-13T13:06:37.361Z,17.67
2022-11-13T13:09:18.733Z,19.97
2022-11-13T13:11:59.687Z,17.60
2022-11-13T13:14:47.308Z,17.40
2022-11-13T13:17:23.008Z,19.37
2022-11-13T13:19:59.877Z,18.17
2022-11-13T13:22:33.844Z,19.20
2022-11-13T13:25:13.320Z,19.17
2022-11-13T13:27:56.971Z,17.97
2022-11-13T13:30:31.572Z,18.30
2022-11-13T13:33:14.377Z,18.90
2022-11-13T13:35:51.939Z,17.90
2022-11-13T13:38:27.070Z,19.80
2022-11-13T13:41:11.380Z,24.67
2022-11-13T13:43:53.315Z,27.70
2022-11-13T13:46:28.251Z,24.87
2022-11-13T13:49:06.688Z,23.47
2022-11-13T13:51:41.846Z,19.67
2022-11-13T13:54:18.607Z,24.50
2022-11-13T13:56:54.110Z,21.73
2022-11-13T13:59:34.297Z,20.80
2022-11-13T14:02:18.760Z,20.57
2022-11-13T14:04:53.582Z,20.90
2022-11-13T14:07:27.707Z,18.87
2022-11-13T14:10:09.721Z,17.30
2022-11-13T14:12:52.661Z,22.00
2022-11-13T14:15:27.244Z,18.60
2022-11-13T14:18:07.253Z,18.40
2022-11-13T14:20:43.558Z,19.57
2022-11-13T14:23:20.119Z,18.50
2022-11-13T14:25:53.013Z,16.70
2022-11-13T14:28:27.089Z,17.53
2022-11-13T14:31:04.747Z,17.53
2022-11-13T14:33:42.190Z,16.80
2022-11-13T14:36:25.722Z,21.13
2022-11-13T14:39:00.727Z,17.03
2022-11-13T14:41:36.167Z,19.40
2022-11-13T14:44:14.920Z,15.70
2022-11-13T14:46:47.942Z,15.37
2022-11-13T14:49:28.002Z,16.33
2022-11-13T14:52:02.358Z,20.47
2022-11-13T14:57:31.239Z,17.87
2022-11-13T15:00:13.119Z,21.83
2022-11-13T15:02:51.775Z,17.43
2022-11-13T15:05:24.823Z,19.73
2022-11-13T15:07:59.078Z,17.43
2022-11-13T15:10:34.075Z,19.50
2022-11-13T15:13:11.830Z,18.10
2022-11-13T15:15:45.171Z,20.47
2022-11-13T15:18:20.015Z,16.60
2022-11-13T15:20:52.783Z,22.33
2022-11-13T15:23:29.255Z,19.07
2022-11-13T15:26:04.301Z,19.90
2022-11-13T15:28:37.146Z,22.93
2022-11-13T15:31:16.572Z,19.83
2022-11-13T15:33:49.469Z,23.10
2022-11-13T15:36:24.706Z,16.90
2022-11-13T15:39:02.307Z,18.57
2022-11-13T15:41:39.777Z,18.37
2022-11-13T15:44:15.006Z,18.50
2022-11-13T15:46:47.849Z,18.97
2022-11-13T15:49:22.771Z,20.13
2022-11-13T15:51:56.550Z,21.00
2022-11-13T15:54:34.620Z,22.07
2022-11-13T15:57:15.899Z,18.40
2022-11-13T15:59:50.859Z,18.63
2022-11-13T16:02:23.406Z,22.23
2022-11-13T16:04:57.372Z,22.00
2022-11-13T16:07:33.352Z,27.53
2022-11-13T16:10:10.029Z,20.07
2022-11-13T16:12:46.790Z,22.47
2022-11-13T16:15:19.806Z,20.53
2022-11-13T16:17:54.332Z,22.60
2022-11-13T16:20:27.169Z,19.63
2022-11-13T16:23:00.159Z,24.07
2022-11-13T16:25:34.348Z,23.33
2022-11-13T16:28:11.684Z,22.57
2022-11-13T16:30:44.482Z,21.97
2022-11-13T16:33:19.762Z,21.53
2022-11-13T16:35:52.706Z,24.00
2022-11-13T16:38:25.505Z,25.60
2022-11-13T16:40:59.516Z,31.70
2022-11-13T16:43:32.263Z,27.30
2022-11-13T16:46:16.289Z,30.80
2022-11-13T16:48:49.384Z,28.43
2022-11-13T16:51:22.638Z,28.20
2022-11-13T16:53:55.391Z,27.00
2022-11-13T16:56:33.063Z,23.87
2022-11-13T16:59:05.824Z,25.13
2022-11-13T17:01:38.597Z,29.27
2022-11-13T17:04:12.300Z,25.87
2022-11-13T17:06:44.951Z,27.97
2022-11-13T17:09:17.698Z,27.40
2022-11-13T17:11:52.854Z,29.53
2022-11-13T17:14:25.514Z,29.37
2022-11-13T17:16:59.320Z,28.87
2022-11-13T17:19:32.314Z,31.67
2022-11-13T17:22:05.035Z,30.30
2022-11-13T17:24:37.854Z,29.63
2022-11-13T17:27:14.532Z,34.73
2022-11-13T17:29:47.386Z,28.37
2022-11-13T17:32:20.017Z,31.83
2022-11-13T17:34:52.675Z,29.17
2022-11-13T17:37:26.577Z,33.23
2022-11-13T17:39:59.488Z,29.80
2022-11-13T17:42:33.828Z,33.10
2022-11-13T17:45:07.036Z,29.50
2022-11-13T17:47:39.907Z,29.83
2022-11-13T17:50:15.050Z,30.90
2022-11-13T17:52:47.706Z,30.50
2022-11-13T17:55:20.348Z,29.13
2022-11-13T17:57:56.902Z,31.77
2022-11-13T18:00:29.863Z,31.97
2022-11-13T18:03:04.913Z,31.23
2022-11-13T18:05:40.676Z,30.00
2022-11-13T18:08:15.364Z,28.83
2022-11-13T18:10:50.966Z,28.27
2022-11-13T18:13:25.027Z,28.27
2022-11-13T18:16:07.031Z,30.47
2022-11-13T18:18:39.837Z,30.33
2022-11-13T18:21:22.460Z,28.27
2022-11-13T18:23:59.664Z,32.10
2022-11-13T18:26:32.865Z,28.13
2022-11-13T18:29:14.664Z,33.00
2022-11-13T18:31:47.523Z,30.63
2022-11-13T18:34:20.289Z,32.13
2022-11-13T18:36:52.876Z,28.03
2022-11-13T18:39:28.045Z,28.30
2022-11-13T18:42:03.387Z,28.30
2022-11-13T18:44:37.625Z,28.37
2022-11-13T18:47:10.328Z,31.17
2022-11-13T18:49:45.597Z,23.30
2022-11-13T18:52:18.365Z,27.47
2022-11-13T18:54:51.092Z,26.03
2022-11-13T18:57:25.301Z,26.50
2022-11-13T18:59:59.665Z,25.47
2022-11-13T19:02:32.478Z,25.10
2022-11-13T19:05:05.157Z,21.87
2022-11-13T19:07:37.913Z,24.53
2022-11-13T19:10:10.685Z,25.00
2022-11-13T19:12:43.520Z,24.87
2022-11-13T19:15:17.666Z,22.60
2022-11-13T19:17:52.829Z,27.77
2022-11-13T19:20:25.842Z,23.33
2022-11-13T19:22:59.410Z,24.73
2022-11-13T19:25:34.859Z,22.13
2022-11-13T19:28:07.621Z,22.33
2022-11-13T19:30:47.344Z,24.83
2022-11-13T19:33:20.158Z,22.07
2022-11-13T19:35:53.725Z,22.50
2022-11-13T19:38:27.745Z,25.43
2022-11-13T19:41:00.722Z,23.00
2022-11-13T19:43:33.970Z,22.97
2022-11-13T19:46:11.145Z,26.80
2022-11-13T19:48:45.109Z,21.83
2022-11-13T19:51:19.245Z,23.27
2022-11-13T19:53:53.720Z,22.80
2022-11-13T19:56:29.449Z,26.50
2022-11-13T19:59:02.312Z,24.63
2022-11-13T20:01:36.438Z,29.93
2022-11-13T20:04:12.027Z,24.07
2022-11-13T20:06:44.722Z,24.60
2022-11-13T20:09:17.483Z,25.17
2022-11-13T20:11:52.091Z,24.20
2022-11-13T20:14:24.871Z,24.87
2022-11-13T20:16:58.930Z,23.80
2022-11-13T20:19:31.605Z,24.97
2022-11-13T20:22:04.623Z,25.83
2022-11-13T20:24:39.602Z,24.73
2022-11-13T20:27:12.319Z,24.73
2022-11-13T20:29:45.270Z,24.43
2022-11-13T20:32:19.378Z,25.57
2022-11-13T20:34:52.065Z,24.33
2022-11-13T20:37:24.852Z,22.50
2022-11-13T20:39:57.547Z,25.53
2022-11-13T20:42:30.521Z,23.97
2022-11-13T20:45:03.397Z,24.23
2022-11-13T20:47:39.206Z,25.10
2022-11-13T20:50:11.978Z,23.67
2022-11-13T20:52:52.870Z,26.90
2022-11-13T20:55:25.796Z,22.37
2022-11-13T20:57:58.631Z,23.77
2022-11-13T21:00:31.438Z,24.97
2022-11-13T21:03:05.525Z,22.60
2022-11-13T21:05:38.285Z,22.83
2022-11-13T21:08:14.109Z,26.17
2022-11-13T21:10:46.724Z,25.63
2022-11-13T21:13:19.467Z,25.27
2022-11-13T21:15:55.102Z,26.63
2022-11-13T21:18:31.363Z,25.33
2022-11-13T21:21:05.105Z,27.30
2022-11-13T21:23:37.916Z,27.63
2022-11-13T21:26:10.809Z,29.33
2022-11-13T21:28:43.525Z,28.57
2022-11-13T21:31:16.960Z,29.10
2022-11-13T21:33:51.150Z,29.07
2022-11-13T21:36:29.370Z,26.80
2022-11-13T21:39:04.173Z,29.77
2022-11-13T21:41:36.809Z,28.10
2022-11-13T21:44:10.626Z,29.60
2022-11-13T21:46:46.310Z,31.97
2022-11-13T21:49:20.424Z,36.13
2022-11-13T21:51:53.305Z,33.47
2022-11-13T21:54:26.098Z,36.30
2022-11-13T21:56:58.896Z,42.27
2022-11-13T21:59:31.891Z,36.73
2022-11-13T22:02:04.731Z,33.50
2022-11-13T22:04:38.841Z,35.60
2022-11-13T22:07:11.714Z,37.13
2022-11-13T22:09:44.467Z,38.57
2022-11-13T22:12:17.152Z,40.80
2022-11-13T22:14:52.694Z,44.47
2022-11-13T22:17:28.176Z,40.20
2022-11-13T22:20:05.559Z,43.13
2022-11-13T22:22:41.268Z,47.57
2022-11-13T22:25:14.227Z,43.80
2022-11-13T22:27:49.894Z,42.27
2022-11-13T22:30:22.590Z,43.97
2022-11-13T22:32:56.643Z,45.60
2022-11-13T22:35:30.849Z,46.30
2022-11-13T22:38:04.100Z,44.33
2022-11-13T22:40:36.893Z,47.80
2022-11-13T22:43:09.664Z,47.67
2022-11-13T22:45:44.339Z,49.97
2022-11-13T22:48:17.107Z,50.80
2022-11-13T22:50:51.199Z,45.80
2022-11-13T22:53:23.991Z,50.10
2022-11-13T22:56:01.328Z,54.57
2022-11-13T22:58:37.000Z,49.40
2022-11-13T23:01:14.596Z,51.60
2022-11-13T23:03:48.125Z,50.23
2022-11-13T23:06:23.645Z,50.07
2022-11-13T23:08:56.738Z,51.60
2022-11-13T23:11:30.619Z,53.93
2022-11-13T23:14:04.071Z,50.80
2022-11-13T23:16:36.839Z,51.40
2022-11-13T23:19:10.086Z,50.57
2022-11-13T23:21:46.031Z,50.93
2022-11-13T23:24:18.769Z,52.70
2022-11-13T23:26:51.547Z,54.00
2022-11-13T23:29:24.433Z,49.30
2022-11-13T23:31:57.124Z,52.67
2022-11-13T23:34:53.155Z,51.03
2022-11-13T23:37:23.923Z,51.77
2022-11-13T23:39:59.071Z,53.23
2022-11-13T23:42:54.293Z,51.13
2022-11-13T23:45:24.931Z,51.77
2022-11-13T23:47:57.987Z,52.53
2022-11-13T23:50:31.169Z,56.03
2022-11-13T23:53:05.300Z,52.70
2022-11-13T23:55:38.255Z,48.57
2022-11-13T23:58:11.996Z,54.13
